Time;durP1;ratioP1;P1;durP2;ratioP2;P2;SDS_P1;SDS_P2;PMS_P1;PMS_P2;Temp;Humidity;BMP_temperature;BMP_pressure;BME280_temperature;BME280_humidity;BME280_pressure;Samples;Min_cycle;Max_cycle;Signal;HPM_P1;HPM_P2
2022/01/12 00:02:17;;;;;;;26.50;15.05;;;-0.30;99.90;;;;;;5042824;28;20033;-81
2022/01/12 00:04:42;;;;;;;28.23;16.25;;;-0.20;99.90;;;;;;5021127;28;20093;-81
2022/01/12 00:07:08;;;;;;;28.48;16.15;;;-0.30;99.90;;;;;;5033759;28;20032;-82
2022/01/12 00:09:34;;;;;;;29.73;16.83;;;-0.30;99.90;;;;;;5057741;28;20036;-82
2022/01/12 00:12:00;;;;;;;27.75;15.77;;;-0.30;99.90;;;;;;5057511;28;20041;-83
2022/01/12 00:14:27;;;;;;;29.95;16.55;;;-0.30;99.90;;;;;;5040086;28;20049;-82
2022/01/12 00:16:58;;;;;;;29.40;16.38;;;-0.40;99.90;;;;;;5027282;28;20014;-82
2022/01/12 00:19:26;;;;;;;24.90;14.65;;;-0.40;99.90;;;;;;5030183;28;20060;-83
2022/01/12 00:21:55;;;;;;;26.83;16.10;;;-0.50;99.90;;;;;;5040301;28;20108;-82
2022/01/12 00:24:21;;;;;;;32.28;18.17;;;-0.40;99.90;;;;;;5011471;28;20105;-81
2022/01/12 00:35:00;;;;;;;31.77;17.05;;;-0.50;99.90;;;;;;5029739;28;20081;-81
2022/01/12 00:37:26;;;;;;;33.40;16.95;;;-0.60;99.90;;;;;;5030542;28;20144;-81
2022/01/12 00:39:57;;;;;;;28.30;16.42;;;-0.60;99.90;;;;;;5024242;28;20018;-81
2022/01/12 00:42:25;;;;;;;32.58;17.23;;;-0.60;99.90;;;;;;5027205;28;20372;-82
2022/01/12 00:44:52;;;;;;;28.27;16.92;;;-0.70;99.90;;;;;;5011851;28;20026;-81
2022/01/12 00:47:18;;;;;;;28.98;15.88;;;-0.70;99.90;;;;;;5021953;28;20470;-81
2022/01/12 00:49:44;;;;;;;31.17;16.20;;;-0.70;99.90;;;;;;5021898;28;20051;-81
2022/01/12 00:52:10;;;;;;;28.38;15.65;;;-0.70;99.90;;;;;;5048766;28;20034;-82
2022/01/12 00:54:36;;;;;;;30.90;17.25;;;-0.70;99.90;;;;;;5028685;28;20033;-82
2022/01/12 00:57:02;;;;;;;30.67;17.02;;;-0.70;99.90;;;;;;5044821;28;20033;-82
2022/01/12 00:59:27;;;;;;;31.83;16.55;;;-0.70;99.90;;;;;;5047022;28;20017;-83
2022/01/12 01:01:54;;;;;;;28.58;16.85;;;-0.60;99.90;;;;;;5046671;28;20037;-82
2022/01/12 01:04:20;;;;;;;30.30;17.02;;;-0.60;99.90;;;;;;5050188;28;20086;-83
2022/01/12 01:06:46;;;;;;;33.60;18.40;;;-0.50;99.90;;;;;;5049168;28;20217;-83
2022/01/12 01:09:11;;;;;;;29.88;16.05;;;-0.60;99.90;;;;;;5003992;28;20498;-82
2022/01/12 01:11:37;;;;;;;27.60;15.35;;;-0.60;99.90;;;;;;5021863;28;20122;-81
2022/01/12 01:14:14;;;;;;;26.83;16.30;;;-0.60;99.90;;;;;;5007306;28;20108;-82
2022/01/12 01:27:33;;;;;;;31.83;18.08;;;-0.80;99.90;;;;;;5024694;28;20140;-82
2022/01/12 01:29:59;;;;;;;37.83;19.75;;;-0.80;99.90;;;;;;5035565;28;20025;-82
2022/01/12 01:32:26;;;;;;;28.15;17.35;;;-0.90;99.90;;;;;;5052965;28;20064;-82
2022/01/12 01:34:52;;;;;;;31.98;17.30;;;-1.00;99.90;;;;;;5047120;28;20048;-83
2022/01/12 01:37:18;;;;;;;28.10;17.08;;;-1.00;99.90;;;;;;5032699;28;20081;-83
2022/01/12 01:39:46;;;;;;;26.65;15.63;;;-1.10;99.90;;;;;;5036146;28;20105;-82
2022/01/12 01:42:20;;;;;;;27.25;16.95;;;-1.20;99.90;;;;;;5049194;28;20021;-83
2022/01/12 01:55:28;;;;;;;35.22;19.90;;;-1.40;99.90;;;;;;5027047;28;20076;-82
2022/01/12 01:57:55;;;;;;;39.20;20.55;;;-1.50;99.90;;;;;;5023061;28;20026;-83
2022/01/12 02:00:24;;;;;;;38.20;20.40;;;-1.50;99.90;;;;;;5007803;28;20025;-81
2022/01/12 02:02:53;;;;;;;40.65;21.27;;;-1.60;99.90;;;;;;5026526;28;20056;-81
2022/01/12 02:05:19;;;;;;;37.40;20.67;;;-1.60;99.90;;;;;;5017016;28;20074;-81
2022/01/12 02:07:45;;;;;;;38.47;21.05;;;-1.60;99.90;;;;;;5024444;28;20610;-82
2022/01/12 02:10:11;;;;;;;37.15;19.58;;;-1.70;99.90;;;;;;5024950;28;20349;-82
2022/01/12 02:12:37;;;;;;;38.67;19.92;;;-1.70;99.90;;;;;;5027155;28;20029;-82
2022/01/12 02:15:11;;;;;;;37.63;20.73;;;-1.70;99.90;;;;;;5031849;28;20030;-80
2022/01/12 02:17:42;;;;;;;42.20;21.27;;;-1.80;99.90;;;;;;5028744;28;20046;-82
2022/01/12 02:42:07;;;;;;;43.92;22.27;;;-2.00;99.90;;;;;;5040920;28;20155;-83
2022/01/12 02:55:31;;;;;;;46.35;24.73;;;-2.20;99.90;;;;;;5044717;28;20052;-83
2022/01/12 02:57:57;;;;;;;47.38;23.60;;;-2.20;99.90;;;;;;5054745;28;20024;-82
2022/01/12 03:00:27;;;;;;;42.83;22.30;;;-2.20;99.90;;;;;;5027048;28;20061;-82
2022/01/12 03:03:01;;;;;;;48.50;23.13;;;-2.20;99.90;;;;;;5017629;28;20041;-83
2022/01/12 03:05:35;;;;;;;43.13;22.67;;;-2.20;99.90;;;;;;5044084;28;20104;-83
2022/01/12 03:08:12;;;;;;;42.25;22.38;;;-2.10;99.90;;;;;;5045109;28;20018;-83
2022/01/12 03:10:38;;;;;;;45.78;24.08;;;-2.00;99.90;;;;;;5027875;28;20100;-81
2022/01/12 03:13:04;;;;;;;45.55;23.98;;;-1.90;99.90;;;;;;5025480;28;20038;-83
2022/01/12 03:15:30;;;;;;;43.15;23.25;;;-1.80;99.90;;;;;;5013950;28;20026;-83
2022/01/12 03:17:56;;;;;;;43.95;22.63;;;-1.80;99.90;;;;;;5022838;28;20028;-83
2022/01/12 03:20:22;;;;;;;48.25;24.00;;;-1.70;99.90;;;;;;5026056;28;20030;-82
2022/01/12 03:22:47;;;;;;;40.28;22.27;;;-1.60;99.90;;;;;;5042343;28;20446;-83
2022/01/12 03:25:13;;;;;;;43.00;23.10;;;-1.50;99.90;;;;;;5021404;28;20022;-83
2022/01/12 03:27:39;;;;;;;41.78;23.23;;;-1.50;99.90;;;;;;5042294;28;20077;-83
2022/01/12 03:30:05;;;;;;;45.53;22.00;;;-1.50;99.90;;;;;;5027893;28;20022;-83
2022/01/12 03:32:42;;;;;;;41.88;22.02;;;-1.50;99.90;;;;;;5046531;28;20056;-82
2022/01/12 03:35:24;;;;;;;47.17;23.08;;;-1.50;99.90;;;;;;5041241;28;20018;-82
2022/01/12 03:38:19;;;;;;;47.73;23.73;;;-1.50;99.90;;;;;;5009093;28;20475;-81
2022/01/12 03:40:40;;;;;;;42.78;21.35;;;-1.50;99.90;;;;;;5024813;28;20285;-82
2022/01/12 03:43:06;;;;;;;48.75;23.40;;;-1.50;99.90;;;;;;5041535;28;20022;-81
2022/01/12 03:45:32;;;;;;;42.90;23.20;;;-1.50;99.90;;;;;;5039651;28;20095;-81
2022/01/12 03:47:57;;;;;;;45.50;23.88;;;-1.50;99.90;;;;;;5007872;28;20018;-82
2022/01/12 03:50:23;;;;;;;42.70;23.10;;;-1.50;99.90;;;;;;5014441;28;20108;-82
2022/01/12 03:52:49;;;;;;;40.65;22.17;;;-1.50;99.90;;;;;;5048610;28;20053;-82
2022/01/12 03:55:15;;;;;;;45.25;23.75;;;-1.60;99.90;;;;;;5047903;28;20029;-81
2022/01/12 03:57:41;;;;;;;43.10;23.90;;;-1.60;99.90;;;;;;5009913;28;20033;-82
2022/01/12 04:00:07;;;;;;;45.25;24.63;;;-1.50;99.90;;;;;;5028071;28;20109;-81
2022/01/12 04:02:33;;;;;;;46.38;24.40;;;-1.60;99.90;;;;;;5026390;28;20033;-82
2022/01/12 04:10:19;;;;;;;38.25;19.73;;;-1.60;99.90;;;;;;5045710;28;20048;-82
2022/01/12 04:12:45;;;;;;;44.58;22.15;;;-1.50;99.90;;;;;;5038281;28;20022;-82
2022/01/12 04:15:11;;;;;;;46.65;22.13;;;-1.50;99.90;;;;;;5032847;28;20022;-82
2022/01/12 04:17:37;;;;;;;39.85;21.42;;;-1.50;99.90;;;;;;5035850;28;20025;-83
2022/01/12 04:20:03;;;;;;;42.05;22.17;;;-1.50;99.90;;;;;;5024625;28;20034;-82
2022/01/12 04:25:14;;;;;;;51.50;25.65;;;-1.50;99.90;;;;;;5046537;28;20032;-81
2022/01/12 04:27:40;;;;;;;46.08;22.92;;;-1.40;99.90;;;;;;5022491;28;20083;-77
2022/01/12 04:30:06;;;;;;;46.90;24.25;;;-1.50;99.90;;;;;;5041949;28;20017;-80
2022/01/12 04:32:37;;;;;;;47.08;23.50;;;-1.50;99.90;;;;;;5036947;28;20026;-81
2022/01/12 04:35:03;;;;;;;48.42;23.63;;;-1.50;99.90;;;;;;5008499;28;20098;-80
2022/01/12 04:37:29;;;;;;;43.30;22.52;;;-1.50;99.90;;;;;;5026141;28;20022;-79
2022/01/12 04:39:55;;;;;;;44.13;23.15;;;-1.50;99.90;;;;;;5030085;28;20054;-79
2022/01/12 04:42:20;;;;;;;46.33;22.73;;;-1.50;99.90;;;;;;5027984;28;20049;-79
2022/01/12 04:44:48;;;;;;;43.58;21.48;;;-1.50;99.90;;;;;;5019839;28;20033;-80
2022/01/12 04:47:39;;;;;;;40.30;20.73;;;-1.50;99.90;;;;;;5047826;28;20048;-80
2022/01/12 04:50:02;;;;;;;46.25;22.17;;;-1.50;99.90;;;;;;5040772;28;20014;-80
2022/01/12 04:52:28;;;;;;;40.28;20.65;;;-1.40;99.90;;;;;;5020489;28;20024;-80
2022/01/12 04:54:55;;;;;;;39.35;20.13;;;-1.40;99.90;;;;;;5037755;28;20037;-80
2022/01/12 04:57:20;;;;;;;40.03;21.60;;;-1.40;99.90;;;;;;5036284;28;20014;-79
2022/01/12 05:00:03;;;;;;;39.53;20.73;;;-1.30;99.90;;;;;;5035544;28;20057;-77
2022/01/12 05:08:11;;;;;;;36.65;19.50;;;-1.10;99.90;;;;;;5022689;28;20033;-79
2022/01/12 05:13:23;;;;;;;37.65;20.02;;;-1.10;99.90;;;;;;5021051;28;20044;-78
2022/01/12 05:15:49;;;;;;;30.88;16.92;;;-1.10;99.90;;;;;;5018709;28;20026;-79
2022/01/12 05:18:15;;;;;;;34.88;18.40;;;-1.00;99.90;;;;;;5021247;28;20038;-79
2022/01/12 05:20:41;;;;;;;35.30;18.35;;;-1.00;99.90;;;;;;5041021;22;20046;-80
2022/01/12 05:23:06;;;;;;;34.17;18.23;;;-1.10;99.90;;;;;;5019025;28;20022;-79
2022/01/12 05:25:32;;;;;;;39.83;19.80;;;-1.20;99.90;;;;;;5016969;28;20470;-80
2022/01/12 05:27:58;;;;;;;40.10;21.60;;;-1.20;99.90;;;;;;5015481;28;20110;-80
2022/01/12 05:30:24;;;;;;;41.60;21.35;;;-1.30;99.90;;;;;;5013984;28;20025;-80
2022/01/12 05:32:49;;;;;;;38.85;19.27;;;-1.40;99.90;;;;;;5018111;28;20120;-81
2022/01/12 05:35:17;;;;;;;36.20;19.73;;;-1.40;99.90;;;;;;5014920;28;20037;-81
2022/01/12 05:37:44;;;;;;;38.15;20.40;;;-1.40;99.90;;;;;;5003220;28;20053;-81
2022/01/12 05:40:12;;;;;;;45.60;21.83;;;-1.40;99.90;;;;;;5004298;28;20022;-81
2022/01/12 05:42:38;;;;;;;43.28;21.33;;;-1.40;99.90;;;;;;5003036;28;20396;-80
2022/01/12 05:45:05;;;;;;;35.97;19.80;;;-1.50;99.90;;;;;;5022749;28;20036;-81
2022/01/12 05:50:12;;;;;;;40.70;20.08;;;-1.40;99.90;;;;;;5031636;28;20064;-79
2022/01/12 05:52:38;;;;;;;35.63;18.35;;;-1.30;99.90;;;;;;5015761;28;20037;-80
2022/01/12 05:55:05;;;;;;;39.88;20.52;;;-1.30;99.90;;;;;;5009243;28;20026;-80
2022/01/12 05:57:32;;;;;;;37.50;19.55;;;-1.20;99.90;;;;;;5005525;28;20085;-80
2022/01/12 05:59:58;;;;;;;39.92;20.23;;;-1.30;99.90;;;;;;4982073;28;20041;-81
2022/01/12 06:02:24;;;;;;;36.85;20.10;;;-1.30;99.90;;;;;;5000199;28;20468;-81
2022/01/12 06:04:50;;;;;;;34.92;18.65;;;-1.20;99.90;;;;;;4995076;28;20057;-80
2022/01/12 06:07:16;;;;;;;36.15;19.17;;;-1.30;99.90;;;;;;5019857;28;20030;-80
2022/01/12 06:09:42;;;;;;;37.38;18.35;;;-1.30;99.90;;;;;;5001302;28;20026;-80
2022/01/12 06:12:08;;;;;;;31.25;16.88;;;-1.30;99.90;;;;;;5020048;28;20029;-80
2022/01/12 06:14:34;;;;;;;37.67;19.17;;;-1.30;99.90;;;;;;5021577;28;20057;-80
2022/01/12 06:17:00;;;;;;;40.72;21.08;;;-1.30;99.90;;;;;;5019993;28;20474;-81
2022/01/12 06:19:26;;;;;;;42.35;21.30;;;-1.30;99.90;;;;;;5001344;28;20470;-81
2022/01/12 06:21:51;;;;;;;42.60;20.48;;;-1.40;99.90;;;;;;5014295;28;20026;-85
2022/01/12 06:24:17;;;;;;;42.38;20.08;;;-1.30;99.90;;;;;;5023605;28;20025;-83
2022/01/12 06:26:43;;;;;;;40.40;20.40;;;-1.20;99.90;;;;;;5019787;28;20132;-83
2022/01/12 06:31:41;;;;;;;40.75;20.35;;;-1.00;99.90;;;;;;5026299;28;20045;-84
2022/01/12 06:34:07;;;;;;;41.40;22.15;;;-1.00;99.90;;;;;;5026229;28;20037;-85
2022/01/12 06:36:33;;;;;;;39.30;21.38;;;-1.10;99.90;;;;;;5023963;28;20018;-83
2022/01/12 06:38:58;;;;;;;37.55;18.88;;;-1.20;99.90;;;;;;5021845;28;20057;-83
2022/01/12 06:41:25;;;;;;;37.05;19.52;;;-1.30;99.90;;;;;;5021650;28;20447;-83
2022/01/12 06:43:52;;;;;;;33.50;17.55;;;-1.40;99.90;;;;;;5004263;28;20398;-84
2022/01/12 06:46:23;;;;;;;33.53;17.27;;;-1.40;99.90;;;;;;5003860;28;20043;-84
2022/01/12 06:48:49;;;;;;;35.70;18.58;;;-1.30;99.90;;;;;;4986055;28;20026;-85
2022/01/12 06:51:15;;;;;;;32.17;17.17;;;-1.10;99.90;;;;;;5012837;28;20057;-84
2022/01/12 06:53:41;;;;;;;32.35;17.80;;;-1.00;99.90;;;;;;5023301;28;20072;-85
2022/01/12 06:56:08;;;;;;;40.22;20.40;;;-1.00;99.90;;;;;;5023318;28;20022;-84
2022/01/12 06:58:34;;;;;;;36.28;18.73;;;-0.90;99.90;;;;;;5023670;28;20041;-83
2022/01/12 07:01:00;;;;;;;42.58;20.05;;;-0.80;99.90;;;;;;5022965;28;20057;-83
2022/01/12 07:03:26;;;;;;;37.55;20.83;;;-0.80;99.90;;;;;;5009482;28;20041;-83
2022/01/12 07:05:52;;;;;;;40.67;22.00;;;-0.80;99.90;;;;;;4985793;28;20464;-84
2022/01/12 07:08:18;;;;;;;41.05;21.33;;;-0.90;99.90;;;;;;5013531;28;20560;-82
2022/01/12 07:10:44;;;;;;;41.13;21.02;;;-1.00;99.90;;;;;;5002679;28;20044;-83
2022/01/12 07:13:13;;;;;;;36.80;19.23;;;-1.00;99.90;;;;;;5008940;28;20026;-81
2022/01/12 07:15:41;;;;;;;36.15;19.23;;;-1.00;99.90;;;;;;5004236;28;20022;-83
2022/01/12 07:18:07;;;;;;;34.88;19.02;;;-1.00;99.90;;;;;;5022098;28;20030;-84
2022/01/12 07:20:33;;;;;;;43.15;21.20;;;-1.00;99.90;;;;;;5018444;28;20030;-83
2022/01/12 07:22:59;;;;;;;39.80;20.92;;;-1.00;99.90;;;;;;5017387;28;20037;-83
2022/01/12 07:25:25;;;;;;;36.72;18.17;;;-0.90;99.90;;;;;;5012132;28;20030;-83
2022/01/12 07:27:51;;;;;;;42.88;22.30;;;-0.90;99.90;;;;;;5002559;28;20023;-83
2022/01/12 07:30:17;;;;;;;45.50;23.08;;;-0.80;99.90;;;;;;5007670;28;20022;-83
2022/01/12 07:32:43;;;;;;;43.83;22.75;;;-0.80;99.90;;;;;;5007884;28;20364;-82
2022/01/12 07:35:09;;;;;;;46.80;23.92;;;-0.90;99.90;;;;;;5012258;28;20078;-84
2022/01/12 07:37:35;;;;;;;46.65;23.77;;;-1.00;99.90;;;;;;5008340;28;20022;-84
2022/01/12 07:40:01;;;;;;;47.20;23.02;;;-1.00;99.90;;;;;;5023080;28;20022;-83
2022/01/12 07:42:27;;;;;;;43.28;23.10;;;-1.00;99.90;;;;;;5026558;28;20051;-83
2022/01/12 07:44:59;;;;;;;44.00;23.27;;;-1.00;99.90;;;;;;5026623;28;20022;-83
2022/01/12 07:47:29;;;;;;;42.92;23.73;;;-0.90;99.90;;;;;;5026586;28;20060;-84
2022/01/12 07:49:57;;;;;;;49.30;23.60;;;-0.90;99.90;;;;;;5027116;28;20037;-82
2022/01/12 07:52:23;;;;;;;46.45;22.17;;;-0.90;99.90;;;;;;5023701;28;20034;-83
2022/01/12 07:55:10;;;;;;;47.55;22.88;;;-0.90;99.90;;;;;;5011877;28;20279;-86
2022/01/12 07:57:36;;;;;;;40.38;20.95;;;-0.90;99.90;;;;;;5014003;28;20046;-81
2022/01/12 08:00:04;;;;;;;44.15;21.50;;;-0.90;99.90;;;;;;5010887;28;20041;-84
2022/01/12 08:02:29;;;;;;;43.45;21.52;;;-0.90;99.90;;;;;;4997788;28;20057;-83
2022/01/12 08:04:55;;;;;;;46.10;22.50;;;-0.90;99.90;;;;;;5001647;28;20030;-82
2022/01/12 08:07:25;;;;;;;44.50;22.17;;;-0.90;99.90;;;;;;5023987;28;20044;-83
2022/01/12 08:09:54;;;;;;;47.30;22.70;;;-0.90;99.90;;;;;;4975583;28;20034;-83
2022/01/12 08:12:20;;;;;;;39.50;20.48;;;-0.80;99.90;;;;;;5017268;28;20026;-83
2022/01/12 08:14:46;;;;;;;36.75;20.08;;;-0.70;99.90;;;;;;5013202;28;20041;-83
2022/01/12 08:17:11;;;;;;;38.20;20.42;;;-0.70;99.90;;;;;;5006614;28;20029;-83
2022/01/12 08:19:39;;;;;;;39.00;19.92;;;-0.70;99.90;;;;;;4989445;28;20439;-83
2022/01/12 08:22:04;;;;;;;44.28;21.23;;;-0.60;99.90;;;;;;5010745;28;20033;-85
2022/01/12 08:24:30;;;;;;;40.75;20.67;;;-0.60;99.90;;;;;;5006209;28;20049;-83
2022/01/12 08:26:56;;;;;;;41.22;20.70;;;-0.50;99.90;;;;;;5005460;28;20364;-84
2022/01/12 08:29:22;;;;;;;43.45;19.70;;;-0.50;99.90;;;;;;5004755;28;20053;-84
2022/01/12 08:31:48;;;;;;;32.50;18.13;;;-0.40;99.90;;;;;;5006678;28;20447;-83
2022/01/12 08:34:14;;;;;;;32.65;16.98;;;-0.40;99.90;;;;;;5013872;28;20033;-85
2022/01/12 08:36:41;;;;;;;27.05;15.25;;;-0.30;99.90;;;;;;5029870;28;20022;-83
2022/01/12 08:39:08;;;;;;;27.63;14.30;;;-0.10;99.90;;;;;;5010699;28;20025;-83
2022/01/12 08:41:36;;;;;;;27.05;15.15;;;0.00;99.90;;;;;;5009481;28;20025;-84
2022/01/12 08:44:03;;;;;;;26.70;13.98;;;0.10;99.90;;;;;;5014159;28;20083;-83
2022/01/12 08:46:28;;;;;;;24.55;13.75;;;0.20;99.90;;;;;;5015100;28;20126;-83
2022/01/12 08:48:54;;;;;;;23.25;13.23;;;0.30;99.90;;;;;;5033102;28;20110;-84
2022/01/12 08:51:20;;;;;;;24.63;14.05;;;0.30;99.90;;;;;;5028571;28;20034;-83
2022/01/12 08:53:45;;;;;;;23.17;13.35;;;0.40;99.90;;;;;;5036094;28;20056;-83
2022/01/12 08:56:11;;;;;;;22.35;12.25;;;0.50;99.60;;;;;;5026713;28;20045;-84
2022/01/12 08:58:37;;;;;;;19.05;11.57;;;0.50;99.40;;;;;;5013898;28;20037;-84
2022/01/12 09:01:04;;;;;;;23.70;12.82;;;0.60;99.20;;;;;;5028468;28;20034;-85
2022/01/12 09:03:33;;;;;;;19.45;12.15;;;0.70;98.90;;;;;;5028283;28;20086;-84
2022/01/12 09:05:59;;;;;;;24.70;13.40;;;0.70;98.50;;;;;;5026540;28;20061;-85
2022/01/12 09:08:25;;;;;;;20.15;12.35;;;0.70;98.10;;;;;;4994350;28;20049;-86
2022/01/12 09:10:51;;;;;;;22.25;12.98;;;0.70;97.90;;;;;;5014001;28;20018;-83
2022/01/12 09:13:17;;;;;;;20.02;11.80;;;0.70;97.70;;;;;;4989604;28;20027;-84
2022/01/12 09:15:43;;;;;;;21.33;11.50;;;0.70;97.60;;;;;;5010197;28;20086;-83
2022/01/12 09:18:08;;;;;;;19.05;11.32;;;0.60;97.60;;;;;;5028106;28;20080;-83
2022/01/12 09:20:34;;;;;;;20.52;11.80;;;0.60;97.30;;;;;;5024640;28;20038;-84
2022/01/12 09:23:00;;;;;;;18.55;12.13;;;0.60;96.90;;;;;;4992349;28;20053;-83
2022/01/12 09:25:25;;;;;;;24.85;12.27;;;0.50;96.60;;;;;;4992070;28;20088;-83
2022/01/12 09:27:51;;;;;;;17.48;10.82;;;0.50;96.70;;;;;;4990918;28;20046;-83
2022/01/12 09:30:22;;;;;;;16.38;10.57;;;0.40;96.80;;;;;;5004333;28;20030;-83
2022/01/12 09:32:48;;;;;;;18.38;11.18;;;0.40;96.80;;;;;;5004205;28;20049;-83
2022/01/12 09:35:15;;;;;;;20.98;12.43;;;0.40;96.80;;;;;;4985981;28;20026;-84
2022/01/12 09:37:41;;;;;;;24.60;13.55;;;0.40;96.80;;;;;;4999469;28;20034;-83
2022/01/12 09:40:07;;;;;;;23.77;12.95;;;0.40;96.50;;;;;;5022826;28;20077;-83
2022/01/12 09:42:34;;;;;;;19.10;11.27;;;0.30;96.70;;;;;;5021456;28;20034;-83
2022/01/12 09:45:02;;;;;;;19.63;11.75;;;0.30;96.80;;;;;;5005549;28;20045;-83
2022/01/12 09:47:28;;;;;;;19.50;11.90;;;0.30;96.90;;;;;;5022573;28;20037;-83
2022/01/12 09:49:54;;;;;;;23.25;12.18;;;0.50;96.90;;;;;;5004796;28;20030;-83
2022/01/12 09:52:20;;;;;;;19.00;11.60;;;0.50;96.50;;;;;;5023623;28;20087;-83
2022/01/12 09:54:47;;;;;;;21.60;13.55;;;0.50;96.40;;;;;;5025414;28;20049;-83
2022/01/12 10:00:49;;;;;;;;;;;;;;;;;;;;;
2022/01/12 10:03:25;;;;;;;17.60;11.27;;;0.50;95.70;;;;;;5008437;28;20053;-83
2022/01/12 10:06:34;;;;;;;18.98;11.35;;;0.50;96.20;;;;;;4992980;28;20041;-82
2022/01/12 10:09:49;;;;;;;20.88;12.15;;;0.60;96.00;;;;;;4995216;28;20069;-83
2022/01/12 10:12:27;;;;;;;24.02;12.52;;;0.70;95.80;;;;;;5009077;28;20046;-84
2022/01/12 10:15:27;;;;;;;21.45;12.30;;;0.80;95.60;;;;;;5010586;28;20034;-83
2022/01/12 10:18:08;;;;;;;20.45;12.40;;;0.90;95.30;;;;;;5017234;28;20109;-84
2022/01/12 10:20:44;;;;;;;19.88;11.60;;;1.00;95.10;;;;;;5035354;28;20034;-84
2022/01/12 10:23:13;;;;;;;19.30;11.88;;;1.10;95.20;;;;;;5035710;28;20037;-81
2022/01/12 10:25:41;;;;;;;15.57;10.38;;;1.20;94.70;;;;;;5035520;28;20065;-81
2022/01/12 10:28:14;;;;;;;21.38;13.60;;;1.20;94.50;;;;;;5035356;28;20013;-83
2022/01/12 10:30:50;;;;;;;23.63;13.73;;;1.30;93.90;;;;;;5034883;28;20042;-83
2022/01/12 10:33:19;;;;;;;19.65;12.25;;;1.20;93.60;;;;;;5032750;28;20076;-84
2022/01/12 10:35:52;;;;;;;19.73;12.20;;;1.00;93.90;;;;;;5034864;28;20026;-83
2022/01/12 10:38:18;;;;;;;24.02;13.50;;;1.10;94.30;;;;;;5033447;28;20033;-83
2022/01/12 10:40:44;;;;;;;24.10;14.30;;;1.00;94.00;;;;;;5027651;28;20034;-83
2022/01/12 10:43:37;;;;;;;23.27;13.18;;;0.80;94.00;;;;;;5022503;28;20037;-84
2022/01/12 10:46:05;;;;;;;18.48;10.90;;;0.70;94.60;;;;;;5016287;28;20046;-84
2022/01/12 10:48:46;;;;;;;22.77;13.75;;;0.70;94.80;;;;;;5006643;28;20037;-84
2022/01/12 10:51:23;;;;;;;22.55;13.80;;;0.60;94.40;;;;;;5030740;28;20034;-82
2022/01/12 10:53:52;;;;;;;20.67;12.38;;;0.60;94.80;;;;;;5007830;28;20030;-84
2022/01/12 10:56:20;;;;;;;21.73;13.02;;;0.80;95.10;;;;;;5013187;28;20106;-82
2022/01/12 10:58:48;;;;;;;22.60;12.85;;;1.00;94.80;;;;;;5022030;28;20030;-83
2022/01/12 11:01:16;;;;;;;22.17;13.90;;;1.00;94.20;;;;;;5017493;28;20549;-82
2022/01/12 11:03:43;;;;;;;24.80;14.00;;;0.90;93.90;;;;;;5006835;28;20489;-82
2022/01/12 11:06:09;;;;;;;25.02;14.30;;;0.90;93.80;;;;;;4989387;28;20046;-83
2022/01/12 11:08:39;;;;;;;23.77;13.32;;;0.80;93.90;;;;;;4990799;28;20022;-82
2022/01/12 11:11:05;;;;;;;20.05;12.43;;;0.80;94.20;;;;;;5013555;28;20033;-82
2022/01/12 11:13:32;;;;;;;29.02;15.20;;;0.80;94.30;;;;;;4993921;28;20149;-82
2022/01/12 11:15:59;;;;;;;22.85;14.45;;;0.80;93.60;;;;;;5006608;28;20022;-82
2022/01/12 11:18:31;;;;;;;21.65;13.00;;;0.80;93.80;;;;;;5006704;28;20025;-82
2022/01/12 11:21:06;;;;;;;23.80;13.88;;;0.70;94.00;;;;;;5047834;23;20040;-84
2022/01/12 11:23:40;;;;;;;20.00;12.32;;;0.80;94.10;;;;;;5052990;28;20069;-86
2022/01/12 11:26:13;;;;;;;24.27;13.52;;;1.00;93.80;;;;;;5029741;28;20025;-85
2022/01/12 11:28:39;;;;;;;20.95;12.27;;;1.10;93.20;;;;;;5044325;28;20052;-85
2022/01/12 11:31:06;;;;;;;25.92;13.93;;;1.00;92.60;;;;;;5050163;28;20018;-83
2022/01/12 11:33:31;;;;;;;22.90;13.20;;;0.90;92.60;;;;;;5028197;28;20018;-84
2022/01/12 11:36:19;;;;;;;19.38;11.80;;;0.80;93.20;;;;;;5026891;28;20036;-87
2022/01/12 11:38:50;;;;;;;20.95;12.98;;;0.80;93.60;;;;;;5044390;28;20049;-85
2022/01/12 11:41:28;;;;;;;21.63;11.57;;;0.90;93.60;;;;;;5022203;28;20040;-84
2022/01/12 11:44:03;;;;;;;23.65;13.23;;;1.10;93.30;;;;;;5025589;28;20030;-85
2022/01/12 11:46:50;;;;;;;20.17;11.75;;;1.20;92.60;;;;;;5004431;28;20068;-82
2022/01/12 11:49:34;;;;;;;18.27;11.38;;;1.20;92.60;;;;;;5005549;28;20025;-84
2022/01/12 11:52:12;;;;;;;19.92;12.20;;;1.20;92.30;;;;;;5030553;28;20018;-85
2022/01/12 11:54:38;;;;;;;17.48;10.85;;;1.10;92.20;;;;;;5023745;28;20025;-84
2022/01/12 11:57:07;;;;;;;16.33;10.85;;;1.10;92.40;;;;;;5003917;28;20133;-84
2022/01/12 11:59:50;;;;;;;16.17;9.93;;;1.20;92.50;;;;;;5016712;28;20006;-84
2022/01/12 12:02:19;;;;;;;16.10;9.05;;;1.20;92.40;;;;;;5035285;28;20104;-84
2022/01/12 12:05:00;;;;;;;18.80;11.52;;;1.40;92.40;;;;;;5036749;28;20053;-82
2022/01/12 12:07:26;;;;;;;20.85;12.13;;;1.40;90.70;;;;;;5019061;28;20025;-81
2022/01/12 12:09:57;;;;;;;21.38;12.48;;;1.20;90.70;;;;;;5011188;28;20133;-83
2022/01/12 12:12:32;;;;;;;20.40;11.68;;;1.00;91.10;;;;;;5034659;28;20029;-83
2022/01/12 12:15:05;;;;;;;22.38;12.30;;;0.90;91.30;;;;;;5030261;28;20053;-82
2022/01/12 12:17:33;;;;;;;21.23;12.70;;;0.90;92.00;;;;;;5048697;28;20028;-84
2022/01/12 12:20:00;;;;;;;24.23;12.40;;;0.90;91.90;;;;;;5009692;28;20045;-84
2022/01/12 12:22:32;;;;;;;21.42;12.90;;;0.90;91.70;;;;;;5009184;28;20151;-87
2022/01/12 12:25:02;;;;;;;18.73;11.43;;;0.90;92.10;;;;;;5031968;28;20018;-80
2022/01/12 12:27:29;;;;;;;22.83;12.35;;;1.00;92.10;;;;;;5036556;28;20045;-80
2022/01/12 12:29:58;;;;;;;24.63;12.57;;;1.10;91.80;;;;;;5020319;28;20049;-81
2022/01/12 12:32:38;;;;;;;21.05;13.55;;;1.10;91.10;;;;;;5020384;28;20020;-82
2022/01/12 12:35:21;;;;;;;21.20;12.95;;;1.10;91.30;;;;;;5019748;28;20048;-80
2022/01/12 12:37:55;;;;;;;21.35;12.07;;;1.10;91.40;;;;;;5036151;28;20084;-82
2022/01/12 12:40:39;;;;;;;18.25;11.95;;;1.20;91.30;;;;;;5013394;28;20048;-85
2022/01/12 12:43:07;;;;;;;21.15;12.45;;;1.40;91.20;;;;;;5011349;28;20382;-84
2022/01/12 12:45:56;;;;;;;20.35;12.90;;;1.50;90.40;;;;;;5017065;28;20085;-84
2022/01/12 12:48:25;;;;;;;22.88;13.30;;;1.50;90.80;;;;;;5016991;28;20025;-83
2022/01/12 12:51:17;;;;;;;25.67;13.35;;;1.50;91.00;;;;;;5021114;28;20060;-86
2022/01/12 12:53:57;;;;;;;24.33;13.85;;;1.50;90.70;;;;;;5030850;28;20394;-85
2022/01/12 12:56:27;;;;;;;28.13;15.23;;;1.30;91.10;;;;;;5029258;28;20041;-84
2022/01/12 12:58:55;;;;;;;34.53;15.57;;;1.20;91.30;;;;;;5026219;28;20032;-86
2022/01/12 13:01:24;;;;;;;34.05;16.52;;;1.10;91.70;;;;;;5049440;28;20029;-85
2022/01/12 13:03:51;;;;;;;26.90;14.30;;;1.00;92.00;;;;;;5032656;28;20093;-84
2022/01/12 13:06:29;;;;;;;29.73;16.27;;;0.90;92.60;;;;;;5029973;28;20033;-85
2022/01/12 13:08:58;;;;;;;31.90;16.73;;;0.80;92.50;;;;;;5041924;28;20060;-83
2022/01/12 13:11:32;;;;;;;29.58;15.57;;;0.70;92.80;;;;;;5042593;28;20045;-83
2022/01/12 13:13:59;;;;;;;29.60;17.67;;;0.60;93.40;;;;;;5025170;28;20025;-84
2022/01/12 13:16:27;;;;;;;24.42;15.10;;;0.60;93.50;;;;;;5029880;28;20021;-82
2022/01/12 13:19:03;;;;;;;32.50;18.17;;;0.70;93.70;;;;;;5026275;28;20085;-84
2022/01/12 13:21:30;;;;;;;34.10;18.38;;;0.80;93.40;;;;;;5025129;28;20069;-81
2022/01/12 13:23:58;;;;;;;28.75;17.30;;;0.70;93.30;;;;;;5023368;28;20078;-82
2022/01/12 13:26:25;;;;;;;31.63;17.45;;;0.60;93.40;;;;;;5051066;28;20025;-83
2022/01/12 13:28:52;;;;;;;28.85;15.73;;;0.60;93.80;;;;;;5044033;28;20041;-84
2022/01/12 13:31:23;;;;;;;37.17;18.30;;;0.60;94.10;;;;;;5006291;28;20033;-83
2022/01/12 13:33:52;;;;;;;27.83;16.85;;;0.60;94.30;;;;;;5027894;28;20029;-80
2022/01/12 13:36:24;;;;;;;25.55;15.00;;;0.60;94.60;;;;;;5004563;28;20439;-84
2022/01/12 13:39:10;;;;;;;;;;;0.70;94.40;;;;;;5024964;28;20022;-82
2022/01/12 13:41:41;;;;;;;27.30;15.00;;;0.90;94.30;;;;;;5007815;28;19910;-85
2022/01/12 13:44:11;;;;;;;28.88;16.17;;;0.90;93.90;;;;;;5011244;28;20499;-82
2022/01/12 13:46:40;;;;;;;25.63;15.18;;;0.90;93.00;;;;;;5006996;28;20021;-85
2022/01/12 13:51:41;;;;;;;34.92;18.40;;;0.50;93.40;;;;;;5030296;28;20040;-84
2022/01/12 13:54:15;;;;;;;28.73;16.05;;;0.40;93.30;;;;;;5038633;28;20112;-84
2022/01/12 13:56:44;;;;;;;29.50;15.70;;;0.30;93.90;;;;;;5023210;28;20109;-83
2022/01/12 13:59:11;;;;;;;31.38;16.92;;;0.40;94.20;;;;;;5027602;28;20030;-81
2022/01/12 14:01:38;;;;;;;30.48;16.13;;;0.40;94.00;;;;;;5024057;28;20029;-83
2022/01/12 14:04:21;;;;;;;22.40;13.50;;;0.50;94.30;;;;;;5024955;28;20022;-86
2022/01/12 14:06:52;;;;;;;25.58;14.80;;;0.70;94.20;;;;;;5016127;28;20099;-83
2022/01/12 14:09:27;;;;;;;25.42;14.45;;;0.90;93.60;;;;;;5040822;28;20025;-83
2022/01/12 14:11:54;;;;;;;30.55;16.85;;;1.00;92.90;;;;;;5018834;28;20087;-84
2022/01/12 14:14:21;;;;;;;30.17;16.33;;;0.80;92.60;;;;;;5006870;28;20018;-83